sensor_id;sensor_type;location;lat;lon;timestamp;P1;durP1;ratioP1;P2;durP2;ratioP2
7116;SDS011;3600;48.568;7.870;2022-10-31T00:01:12;6.90;;;6.15;;
7116;SDS011;3600;48.568;7.870;2022-10-31T00:03:46;9.43;;;6.70;;
7116;SDS011;3600;48.568;7.870;2022-10-31T00:06:14;9.88;;;6.50;;
7116;SDS011;3600;48.568;7.870;2022-10-31T00:08:41;6.35;;;5.60;;
7116;SDS011;3600;48.568;7.870;2022-10-31T00:11:08;5.97;;;5.25;;
7116;SDS011;3600;48.568;7.870;2022-10-31T00:13:36;6.60;;;5.90;;
7116;SDS011;3600;48.568;7.870;2022-10-31T00:16:02;9.43;;;5.20;;
7116;SDS011;3600;48.568;7.870;2022-10-31T00:18:29;5.60;;;5.10;;
7116;SDS011;3600;48.568;7.870;2022-10-31T00:21:02;7.85;;;5.60;;
7116;SDS011;3600;48.568;7.870;2022-10-31T00:23:29;7.53;;;5.35;;
7116;SDS011;3600;48.568;7.870;2022-10-31T00:26:00;6.32;;;5.82;;
7116;SDS011;3600;48.568;7.870;2022-10-31T00:28:28;6.20;;;5.00;;
7116;SDS011;3600;48.568;7.870;2022-10-31T00:31:00;6.00;;;5.13;;
7116;SDS011;3600;48.568;7.870;2022-10-31T00:33:28;5.90;;;4.75;;
7116;SDS011;3600;48.568;7.870;2022-10-31T00:35:55;4.78;;;4.38;;
7116;SDS011;3600;48.568;7.870;2022-10-31T00:38:22;7.45;;;4.95;;
7116;SDS011;3600;48.568;7.870;2022-10-31T00:40:49;7.60;;;5.43;;
7116;SDS011;3600;48.568;7.870;2022-10-31T00:43:15;6.22;;;4.75;;
7116;SDS011;3600;48.568;7.870;2022-10-31T00:45:42;5.20;;;4.78;;
7116;SDS011;3600;48.568;7.870;2022-10-31T00:48:09;6.05;;;4.53;;
7116;SDS011;3600;48.568;7.870;2022-10-31T00:50:37;4.90;;;4.20;;
7116;SDS011;3600;48.568;7.870;2022-10-31T00:53:04;5.63;;;5.13;;
7116;SDS011;3600;48.568;7.870;2022-10-31T00:55:31;7.45;;;4.80;;
7116;SDS011;3600;48.568;7.870;2022-10-31T00:57:58;6.07;;;4.57;;
7116;SDS011;3600;48.568;7.870;2022-10-31T01:00:25;7.43;;;4.80;;
7116;SDS011;3600;48.568;7.870;2022-10-31T01:02:52;6.55;;;4.85;;
7116;SDS011;3600;48.568;7.870;2022-10-31T01:05:19;6.07;;;4.60;;
7116;SDS011;3600;48.568;7.870;2022-10-31T01:07:46;5.28;;;4.72;;
7116;SDS011;3600;48.568;7.870;2022-10-31T01:10:13;4.72;;;4.32;;
7116;SDS011;3600;48.568;7.870;2022-10-31T01:12:40;7.03;;;4.72;;
7116;SDS011;3600;48.568;7.870;2022-10-31T01:15:09;5.85;;;4.55;;
7116;SDS011;3600;48.568;7.870;2022-10-31T01:17:38;5.25;;;4.63;;
7116;SDS011;3600;48.568;7.870;2022-10-31T01:20:06;6.20;;;4.57;;
7116;SDS011;3600;48.568;7.870;2022-10-31T01:22:34;7.45;;;4.88;;
7116;SDS011;3600;48.568;7.870;2022-10-31T01:25:01;7.88;;;5.35;;
7116;SDS011;3600;48.568;7.870;2022-10-31T01:27:28;6.35;;;4.95;;
7116;SDS011;3600;48.568;7.870;2022-10-31T01:29:56;6.60;;;5.00;;
7116;SDS011;3600;48.568;7.870;2022-10-31T01:32:23;8.35;;;5.13;;
7116;SDS011;3600;48.568;7.870;2022-10-31T01:34:50;4.80;;;4.40;;
7116;SDS011;3600;48.568;7.870;2022-10-31T01:37:17;12.45;;;5.68;;
7116;SDS011;3600;48.568;7.870;2022-10-31T01:39:44;5.35;;;4.85;;
7116;SDS011;3600;48.568;7.870;2022-10-31T01:42:15;7.18;;;5.35;;
7116;SDS011;3600;48.568;7.870;2022-10-31T01:44:56;6.43;;;4.70;;
7116;SDS011;3600;48.568;7.870;2022-10-31T01:47:44;5.25;;;4.75;;
7116;SDS011;3600;48.568;7.870;2022-10-31T01:50:14;8.35;;;5.28;;
7116;SDS011;3600;48.568;7.870;2022-10-31T01:52:52;5.68;;;4.65;;
7116;SDS011;3600;48.568;7.870;2022-10-31T01:55:24;5.60;;;4.68;;
7116;SDS011;3600;48.568;7.870;2022-10-31T01:57:57;5.80;;;4.90;;
7116;SDS011;3600;48.568;7.870;2022-10-31T02:00:28;7.90;;;4.70;;
7116;SDS011;3600;48.568;7.870;2022-10-31T02:02:55;5.53;;;5.03;;
7116;SDS011;3600;48.568;7.870;2022-10-31T02:05:23;5.25;;;4.43;;
7116;SDS011;3600;48.568;7.870;2022-10-31T02:07:58;9.05;;;5.22;;
7116;SDS011;3600;48.568;7.870;2022-10-31T02:10:38;8.80;;;5.32;;
7116;SDS011;3600;48.568;7.870;2022-10-31T02:13:06;5.22;;;4.50;;
7116;SDS011;3600;48.568;7.870;2022-10-31T02:15:34;5.90;;;4.50;;
7116;SDS011;3600;48.568;7.870;2022-10-31T02:18:03;8.27;;;4.45;;
7116;SDS011;3600;48.568;7.870;2022-10-31T02:20:37;10.20;;;5.25;;
7116;SDS011;3600;48.568;7.870;2022-10-31T02:37:20;4.60;;;4.15;;
7116;SDS011;3600;48.568;7.870;2022-10-31T02:43:13;5.00;;;4.32;;
7116;SDS011;3600;48.568;7.870;2022-10-31T02:45:47;5.35;;;4.63;;
7116;SDS011;3600;48.568;7.870;2022-10-31T02:48:23;7.20;;;4.70;;
7116;SDS011;3600;48.568;7.870;2022-10-31T02:50:55;7.72;;;4.47;;
7116;SDS011;3600;48.568;7.870;2022-10-31T02:53:25;4.30;;;3.90;;
7116;SDS011;3600;48.568;7.870;2022-10-31T02:58:29;5.28;;;4.47;;
7116;SDS011;3600;48.568;7.870;2022-10-31T03:09:14;5.40;;;4.72;;
7116;SDS011;3600;48.568;7.870;2022-10-31T03:11:53;5.65;;;4.32;;
7116;SDS011;3600;48.568;7.870;2022-10-31T03:14:48;5.75;;;4.57;;
7116;SDS011;3600;48.568;7.870;2022-10-31T03:17:22;5.88;;;4.47;;
7116;SDS011;3600;48.568;7.870;2022-10-31T03:20:00;5.10;;;4.53;;
7116;SDS011;3600;48.568;7.870;2022-10-31T03:22:29;5.85;;;4.32;;
7116;SDS011;3600;48.568;7.870;2022-10-31T03:25:00;5.85;;;4.30;;
7116;SDS011;3600;48.568;7.870;2022-10-31T03:27:29;5.78;;;4.20;;
7116;SDS011;3600;48.568;7.870;2022-10-31T03:30:02;6.72;;;4.70;;
7116;SDS011;3600;48.568;7.870;2022-10-31T03:32:52;4.40;;;4.00;;
7116;SDS011;3600;48.568;7.870;2022-10-31T03:35:20;6.57;;;4.93;;
7116;SDS011;3600;48.568;7.870;2022-10-31T03:37:51;6.30;;;4.47;;
7116;SDS011;3600;48.568;7.870;2022-10-31T03:40:20;5.53;;;4.20;;
7116;SDS011;3600;48.568;7.870;2022-10-31T03:42:54;6.82;;;4.97;;
7116;SDS011;3600;48.568;7.870;2022-10-31T03:45:28;4.60;;;4.20;;
7116;SDS011;3600;48.568;7.870;2022-10-31T03:47:57;4.32;;;3.92;;
7116;SDS011;3600;48.568;7.870;2022-10-31T03:50:28;7.90;;;4.03;;
7116;SDS011;3600;48.568;7.870;2022-10-31T03:53:06;4.60;;;4.15;;
7116;SDS011;3600;48.568;7.870;2022-10-31T03:56:02;7.65;;;5.10;;
7116;SDS011;3600;48.568;7.870;2022-10-31T03:58:36;5.90;;;4.97;;
7116;SDS011;3600;48.568;7.870;2022-10-31T04:01:15;5.28;;;4.68;;
7116;SDS011;3600;48.568;7.870;2022-10-31T04:03:44;8.65;;;5.15;;
7116;SDS011;3600;48.568;7.870;2022-10-31T04:06:12;7.88;;;4.68;;
7116;SDS011;3600;48.568;7.870;2022-10-31T04:08:42;5.78;;;4.35;;
7116;SDS011;3600;48.568;7.870;2022-10-31T04:11:13;4.32;;;3.92;;
7116;SDS011;3600;48.568;7.870;2022-10-31T04:13:43;4.22;;;3.80;;
7116;SDS011;3600;48.568;7.870;2022-10-31T04:16:12;4.25;;;3.65;;
7116;SDS011;3600;48.568;7.870;2022-10-31T04:18:42;4.00;;;3.70;;
7116;SDS011;3600;48.568;7.870;2022-10-31T04:21:09;4.50;;;3.88;;
7116;SDS011;3600;48.568;7.870;2022-10-31T04:23:36;5.90;;;4.07;;
7116;SDS011;3600;48.568;7.870;2022-10-31T04:26:03;3.70;;;3.40;;
7116;SDS011;3600;48.568;7.870;2022-10-31T04:28:30;5.60;;;4.35;;
7116;SDS011;3600;48.568;7.870;2022-10-31T04:30:59;6.13;;;4.60;;
7116;SDS011;3600;48.568;7.870;2022-10-31T04:33:25;4.00;;;3.63;;
7116;SDS011;3600;48.568;7.870;2022-10-31T04:35:52;6.75;;;4.30;;
7116;SDS011;3600;48.568;7.870;2022-10-31T04:38:19;4.15;;;3.80;;
7116;SDS011;3600;48.568;7.870;2022-10-31T04:40:46;5.63;;;4.25;;
7116;SDS011;3600;48.568;7.870;2022-10-31T04:43:12;5.30;;;3.92;;
7116;SDS011;3600;48.568;7.870;2022-10-31T04:45:39;5.82;;;3.80;;
7116;SDS011;3600;48.568;7.870;2022-10-31T04:48:06;5.95;;;3.58;;
7116;SDS011;3600;48.568;7.870;2022-10-31T04:50:33;5.03;;;3.30;;
7116;SDS011;3600;48.568;7.870;2022-10-31T04:53:00;4.32;;;3.88;;
7116;SDS011;3600;48.568;7.870;2022-10-31T04:55:26;4.90;;;3.72;;
7116;SDS011;3600;48.568;7.870;2022-10-31T04:57:53;5.93;;;4.43;;
7116;SDS011;3600;48.568;7.870;2022-10-31T05:00:21;5.13;;;3.95;;
7116;SDS011;3600;48.568;7.870;2022-10-31T05:02:49;5.72;;;3.90;;
7116;SDS011;3600;48.568;7.870;2022-10-31T05:05:19;6.88;;;4.90;;
7116;SDS011;3600;48.568;7.870;2022-10-31T05:07:48;4.28;;;3.83;;
7116;SDS011;3600;48.568;7.870;2022-10-31T05:10:16;4.30;;;3.83;;
7116;SDS011;3600;48.568;7.870;2022-10-31T05:12:51;3.80;;;3.40;;
7116;SDS011;3600;48.568;7.870;2022-10-31T05:15:20;3.60;;;3.30;;
7116;SDS011;3600;48.568;7.870;2022-10-31T05:17:49;5.82;;;3.67;;
7116;SDS011;3600;48.568;7.870;2022-10-31T05:20:17;4.03;;;3.65;;
7116;SDS011;3600;48.568;7.870;2022-10-31T05:22:45;5.47;;;3.92;;
7116;SDS011;3600;48.568;7.870;2022-10-31T05:25:14;5.18;;;3.92;;
7116;SDS011;3600;48.568;7.870;2022-10-31T05:27:42;6.13;;;3.67;;
7116;SDS011;3600;48.568;7.870;2022-10-31T05:30:11;4.85;;;4.35;;
7116;SDS011;3600;48.568;7.870;2022-10-31T05:32:42;4.20;;;3.65;;
7116;SDS011;3600;48.568;7.870;2022-10-31T05:35:11;4.18;;;3.78;;
7116;SDS011;3600;48.568;7.870;2022-10-31T05:37:43;5.10;;;3.88;;
7116;SDS011;3600;48.568;7.870;2022-10-31T05:40:10;3.88;;;3.50;;
7116;SDS011;3600;48.568;7.870;2022-10-31T05:42:39;6.55;;;4.20;;
7116;SDS011;3600;48.568;7.870;2022-10-31T05:45:11;6.03;;;3.67;;
7116;SDS011;3600;48.568;7.870;2022-10-31T05:47:39;4.30;;;3.90;;
7116;SDS011;3600;48.568;7.870;2022-10-31T05:50:07;4.90;;;4.20;;
7116;SDS011;3600;48.568;7.870;2022-10-31T05:52:34;8.80;;;5.15;;
7116;SDS011;3600;48.568;7.870;2022-10-31T05:55:02;7.22;;;5.75;;
7116;SDS011;3600;48.568;7.870;2022-10-31T05:57:29;7.72;;;5.55;;
7116;SDS011;3600;48.568;7.870;2022-10-31T05:59:58;7.45;;;6.75;;
7116;SDS011;3600;48.568;7.870;2022-10-31T06:02:24;10.52;;;7.78;;
7116;SDS011;3600;48.568;7.870;2022-10-31T06:04:53;9.30;;;7.28;;
7116;SDS011;3600;48.568;7.870;2022-10-31T06:07:20;9.52;;;6.93;;
7116;SDS011;3600;48.568;7.870;2022-10-31T06:09:46;7.20;;;5.97;;
7116;SDS011;3600;48.568;7.870;2022-10-31T06:12:13;5.80;;;5.30;;
7116;SDS011;3600;48.568;7.870;2022-10-31T06:14:40;6.53;;;5.25;;
7116;SDS011;3600;48.568;7.870;2022-10-31T06:17:09;5.13;;;4.40;;
7116;SDS011;3600;48.568;7.870;2022-10-31T06:19:36;3.80;;;3.42;;
7116;SDS011;3600;48.568;7.870;2022-10-31T06:22:03;4.05;;;3.60;;
7116;SDS011;3600;48.568;7.870;2022-10-31T06:24:30;4.90;;;3.53;;
7116;SDS011;3600;48.568;7.870;2022-10-31T06:26:59;6.28;;;3.67;;
7116;SDS011;3600;48.568;7.870;2022-10-31T06:29:26;3.83;;;3.53;;
7116;SDS011;3600;48.568;7.870;2022-10-31T06:31:52;4.65;;;3.53;;
7116;SDS011;3600;48.568;7.870;2022-10-31T06:34:19;5.10;;;3.60;;
7116;SDS011;3600;48.568;7.870;2022-10-31T06:36:46;4.45;;;3.90;;
7116;SDS011;3600;48.568;7.870;2022-10-31T06:39:14;4.22;;;3.83;;
7116;SDS011;3600;48.568;7.870;2022-10-31T06:41:41;5.30;;;3.58;;
7116;SDS011;3600;48.568;7.870;2022-10-31T06:44:08;10.60;;;4.70;;
7116;SDS011;3600;48.568;7.870;2022-10-31T06:46:34;5.65;;;4.10;;
7116;SDS011;3600;48.568;7.870;2022-10-31T06:49:01;5.65;;;3.75;;
7116;SDS011;3600;48.568;7.870;2022-10-31T06:51:28;4.32;;;3.80;;
7116;SDS011;3600;48.568;7.870;2022-10-31T06:53:54;6.15;;;4.85;;
7116;SDS011;3600;48.568;7.870;2022-10-31T06:56:21;8.95;;;5.28;;
7116;SDS011;3600;48.568;7.870;2022-10-31T06:58:48;10.38;;;7.43;;
7116;SDS011;3600;48.568;7.870;2022-10-31T07:01:15;13.05;;;9.77;;
7116;SDS011;3600;48.568;7.870;2022-10-31T07:03:41;15.13;;;11.57;;
7116;SDS011;3600;48.568;7.870;2022-10-31T07:06:08;14.05;;;9.60;;
7116;SDS011;3600;48.568;7.870;2022-10-31T07:08:35;10.45;;;7.07;;
7116;SDS011;3600;48.568;7.870;2022-10-31T07:11:02;9.63;;;6.50;;
7116;SDS011;3600;48.568;7.870;2022-10-31T07:13:28;7.88;;;6.72;;
7116;SDS011;3600;48.568;7.870;2022-10-31T07:15:59;9.18;;;6.47;;
7116;SDS011;3600;48.568;7.870;2022-10-31T07:18:27;8.13;;;6.15;;
7116;SDS011;3600;48.568;7.870;2022-10-31T07:20:54;8.60;;;5.70;;
7116;SDS011;3600;48.568;7.870;2022-10-31T07:23:25;7.00;;;6.22;;
7116;SDS011;3600;48.568;7.870;2022-10-31T07:25:55;7.50;;;6.20;;
7116;SDS011;3600;48.568;7.870;2022-10-31T07:28:23;10.40;;;6.38;;
7116;SDS011;3600;48.568;7.870;2022-10-31T07:30:54;7.63;;;5.30;;
7116;SDS011;3600;48.568;7.870;2022-10-31T07:33:22;5.70;;;4.88;;
7116;SDS011;3600;48.568;7.870;2022-10-31T07:35:49;5.85;;;4.25;;
7116;SDS011;3600;48.568;7.870;2022-10-31T07:38:16;7.32;;;4.97;;
7116;SDS011;3600;48.568;7.870;2022-10-31T07:40:43;4.85;;;4.38;;
7116;SDS011;3600;48.568;7.870;2022-10-31T07:43:10;8.15;;;4.90;;
7116;SDS011;3600;48.568;7.870;2022-10-31T07:45:39;7.45;;;4.70;;
7116;SDS011;3600;48.568;7.870;2022-10-31T07:48:06;7.85;;;4.50;;
7116;SDS011;3600;48.568;7.870;2022-10-31T07:50:33;6.05;;;4.22;;
7116;SDS011;3600;48.568;7.870;2022-10-31T07:53:01;6.57;;;4.28;;
7116;SDS011;3600;48.568;7.870;2022-10-31T07:55:36;6.55;;;4.15;;
7116;SDS011;3600;48.568;7.870;2022-10-31T07:58:04;4.95;;;4.28;;
7116;SDS011;3600;48.568;7.870;2022-10-31T08:00:36;7.53;;;3.70;;
7116;SDS011;3600;48.568;7.870;2022-10-31T08:03:08;6.60;;;3.80;;
7116;SDS011;3600;48.568;7.870;2022-10-31T08:05:37;5.95;;;3.78;;
7116;SDS011;3600;48.568;7.870;2022-10-31T08:08:04;5.55;;;3.47;;
7116;SDS011;3600;48.568;7.870;2022-10-31T08:10:31;5.28;;;3.60;;
7116;SDS011;3600;48.568;7.870;2022-10-31T08:13:00;4.47;;;3.60;;
7116;SDS011;3600;48.568;7.870;2022-10-31T08:15:28;5.75;;;3.58;;
7116;SDS011;3600;48.568;7.870;2022-10-31T08:17:56;3.92;;;3.53;;
7116;SDS011;3600;48.568;7.870;2022-10-31T08:20:23;5.40;;;3.90;;
7116;SDS011;3600;48.568;7.870;2022-10-31T08:22:54;6.00;;;3.92;;
7116;SDS011;3600;48.568;7.870;2022-10-31T08:25:26;4.25;;;3.47;;
7116;SDS011;3600;48.568;7.870;2022-10-31T08:27:59;6.90;;;3.63;;
7116;SDS011;3600;48.568;7.870;2022-10-31T08:30:27;7.97;;;4.38;;
7116;SDS011;3600;48.568;7.870;2022-10-31T08:33:06;5.55;;;4.20;;
7116;SDS011;3600;48.568;7.870;2022-10-31T08:35:37;7.70;;;4.05;;
7116;SDS011;3600;48.568;7.870;2022-10-31T08:38:04;4.13;;;3.70;;
7116;SDS011;3600;48.568;7.870;2022-10-31T08:40:33;6.30;;;4.00;;
7116;SDS011;3600;48.568;7.870;2022-10-31T08:43:05;6.47;;;4.50;;
7116;SDS011;3600;48.568;7.870;2022-10-31T08:45:33;13.48;;;4.43;;
7116;SDS011;3600;48.568;7.870;2022-10-31T08:48:01;7.68;;;4.70;;
7116;SDS011;3600;48.568;7.870;2022-10-31T08:50:31;6.28;;;4.28;;
7116;SDS011;3600;48.568;7.870;2022-10-31T08:53:21;7.22;;;4.18;;
7116;SDS011;3600;48.568;7.870;2022-10-31T08:55:46;6.18;;;4.80;;
7116;SDS011;3600;48.568;7.870;2022-10-31T08:58:14;6.68;;;4.75;;
7116;SDS011;3600;48.568;7.870;2022-10-31T09:00:42;5.15;;;4.45;;
7116;SDS011;3600;48.568;7.870;2022-10-31T09:03:11;8.05;;;5.40;;
7116;SDS011;3600;48.568;7.870;2022-10-31T09:05:40;6.13;;;4.10;;
7116;SDS011;3600;48.568;7.870;2022-10-31T09:08:07;5.18;;;4.32;;
7116;SDS011;3600;48.568;7.870;2022-10-31T09:10:41;5.85;;;4.82;;
7116;SDS011;3600;48.568;7.870;2022-10-31T09:13:10;9.23;;;5.25;;
7116;SDS011;3600;48.568;7.870;2022-10-31T09:15:39;6.90;;;5.03;;
7116;SDS011;3600;48.568;7.870;2022-10-31T09:18:08;9.02;;;5.70;;
7116;SDS011;3600;48.568;7.870;2022-10-31T09:20:36;10.32;;;6.55;;
7116;SDS011;3600;48.568;7.870;2022-10-31T09:23:05;8.82;;;6.05;;
7116;SDS011;3600;48.568;7.870;2022-10-31T09:25:36;8.57;;;6.45;;
7116;SDS011;3600;48.568;7.870;2022-10-31T09:28:04;11.30;;;6.97;;
7116;SDS011;3600;48.568;7.870;2022-10-31T09:30:33;9.90;;;6.82;;
7116;SDS011;3600;48.568;7.870;2022-10-31T09:33:02;9.30;;;6.65;;
7116;SDS011;3600;48.568;7.870;2022-10-31T09:35:31;11.73;;;6.60;;
7116;SDS011;3600;48.568;7.870;2022-10-31T09:38:03;9.55;;;6.07;;
7116;SDS011;3600;48.568;7.870;2022-10-31T09:40:46;9.38;;;7.47;;
7116;SDS011;3600;48.568;7.870;2022-10-31T09:46:35;8.80;;;6.43;;
7116;SDS011;3600;48.568;7.870;2022-10-31T09:49:33;10.00;;;7.28;;
7116;SDS011;3600;48.568;7.870;2022-10-31T09:54:51;13.38;;;7.93;;
7116;SDS011;3600;48.568;7.870;2022-10-31T09:57:28;11.55;;;7.75;;
7116;SDS011;3600;48.568;7.870;2022-10-31T09:59:59;9.60;;;7.65;;
7116;SDS011;3600;48.568;7.870;2022-10-31T10:10:51;9.98;;;7.13;;
7116;SDS011;3600;48.568;7.870;2022-10-31T10:13:41;9.90;;;7.28;;
7116;SDS011;3600;48.568;7.870;2022-10-31T10:22:12;10.50;;;8.07;;
7116;SDS011;3600;48.568;7.870;2022-10-31T10:25:01;10.38;;;7.38;;
7116;SDS011;3600;48.568;7.870;2022-10-31T10:33:30;11.20;;;8.45;;
7116;SDS011;3600;48.568;7.870;2022-10-31T10:35:59;9.77;;;8.68;;
7116;SDS011;3600;48.568;7.870;2022-10-31T10:38:29;10.55;;;9.02;;
7116;SDS011;3600;48.568;7.870;2022-10-31T10:41:20;14.15;;;8.80;;
7116;SDS011;3600;48.568;7.870;2022-10-31T10:43:49;14.32;;;8.48;;
7116;SDS011;3600;48.568;7.870;2022-10-31T10:49:42;13.05;;;8.75;;
7116;SDS011;3600;48.568;7.870;2022-10-31T10:55:24;15.13;;;9.05;;
7116;SDS011;3600;48.568;7.870;2022-10-31T10:58:03;13.32;;;10.43;;
7116;SDS011;3600;48.568;7.870;2022-10-31T11:00:40;14.43;;;10.07;;
7116;SDS011;3600;48.568;7.870;2022-10-31T11:03:09;15.45;;;9.70;;
7116;SDS011;3600;48.568;7.870;2022-10-31T11:05:55;14.02;;;9.32;;
7116;SDS011;3600;48.568;7.870;2022-10-31T11:08:28;11.88;;;8.85;;
7116;SDS011;3600;48.568;7.870;2022-10-31T11:11:00;11.10;;;8.57;;
7116;SDS011;3600;48.568;7.870;2022-10-31T11:13:33;13.55;;;8.27;;
7116;SDS011;3600;48.568;7.870;2022-10-31T11:16:09;14.52;;;8.43;;
7116;SDS011;3600;48.568;7.870;2022-10-31T11:18:43;11.10;;;8.18;;
7116;SDS011;3600;48.568;7.870;2022-10-31T11:21:26;10.10;;;8.05;;
7116;SDS011;3600;48.568;7.870;2022-10-31T11:26:37;10.23;;;8.27;;
7116;SDS011;3600;48.568;7.870;2022-10-31T11:29:13;11.75;;;7.93;;
7116;SDS011;3600;48.568;7.870;2022-10-31T11:31:47;12.65;;;7.63;;
7116;SDS011;3600;48.568;7.870;2022-10-31T11:37:01;9.82;;;7.50;;
7116;SDS011;3600;48.568;7.870;2022-10-31T11:39:52;9.85;;;7.75;;
7116;SDS011;3600;48.568;7.870;2022-10-31T11:42:21;10.43;;;7.35;;
7116;SDS011;3600;48.568;7.870;2022-10-31T11:44:51;10.40;;;7.68;;
7116;SDS011;3600;48.568;7.870;2022-10-31T11:47:21;14.43;;;9.20;;
7116;SDS011;3600;48.568;7.870;2022-10-31T11:49:52;13.18;;;8.10;;
7116;SDS011;3600;48.568;7.870;2022-10-31T11:52:21;16.35;;;9.93;;
7116;SDS011;3600;48.568;7.870;2022-10-31T11:54:55;10.95;;;8.45;;
7116;SDS011;3600;48.568;7.870;2022-10-31T11:59:56;21.50;;;14.25;;
7116;SDS011;3600;48.568;7.870;2022-10-31T12:02:26;15.48;;;10.13;;
7116;SDS011;3600;48.568;7.870;2022-10-31T12:04:59;11.13;;;9.77;;
7116;SDS011;3600;48.568;7.870;2022-10-31T12:07:46;15.65;;;11.90;;
7116;SDS011;3600;48.568;7.870;2022-10-31T12:10:13;12.32;;;10.13;;
7116;SDS011;3600;48.568;7.870;2022-10-31T12:15:47;11.88;;;8.25;;
7116;SDS011;3600;48.568;7.870;2022-10-31T12:18:27;13.57;;;9.20;;
7116;SDS011;3600;48.568;7.870;2022-10-31T12:23:46;11.32;;;8.45;;
7116;SDS011;3600;48.568;7.870;2022-10-31T12:29:15;14.80;;;10.43;;
7116;SDS011;3600;48.568;7.870;2022-10-31T12:37:35;13.00;;;8.30;;
7116;SDS011;3600;48.568;7.870;2022-10-31T12:45:54;11.93;;;8.75;;
7116;SDS011;3600;48.568;7.870;2022-10-31T12:48:45;9.57;;;7.72;;
7116;SDS011;3600;48.568;7.870;2022-10-31T12:54:15;12.00;;;8.30;;
7116;SDS011;3600;48.568;7.870;2022-10-31T12:59:48;10.27;;;8.02;;
7116;SDS011;3600;48.568;7.870;2022-10-31T13:02:59;10.75;;;8.05;;
7116;SDS011;3600;48.568;7.870;2022-10-31T13:05:50;10.50;;;7.40;;
7116;SDS011;3600;48.568;7.870;2022-10-31T13:08:25;8.85;;;7.45;;
7116;SDS011;3600;48.568;7.870;2022-10-31T13:13:39;8.23;;;7.00;;
7116;SDS011;3600;48.568;7.870;2022-10-31T13:16:13;11.02;;;7.75;;
7116;SDS011;3600;48.568;7.870;2022-10-31T13:18:50;12.13;;;7.55;;
7116;SDS011;3600;48.568;7.870;2022-10-31T13:21:32;10.63;;;7.60;;
7116;SDS011;3600;48.568;7.870;2022-10-31T13:24:04;9.30;;;7.07;;
7116;SDS011;3600;48.568;7.870;2022-10-31T13:26:40;9.40;;;6.68;;
7116;SDS011;3600;48.568;7.870;2022-10-31T13:29:43;11.60;;;7.45;;
7116;SDS011;3600;48.568;7.870;2022-10-31T13:32:17;8.55;;;6.10;;
7116;SDS011;3600;48.568;7.870;2022-10-31T13:34:46;9.98;;;6.78;;
7116;SDS011;3600;48.568;7.870;2022-10-31T13:37:35;9.93;;;6.80;;
7116;SDS011;3600;48.568;7.870;2022-10-31T13:40:10;9.30;;;6.95;;
7116;SDS011;3600;48.568;7.870;2022-10-31T13:45:16;9.80;;;8.23;;
7116;SDS011;3600;48.568;7.870;2022-10-31T13:48:00;10.18;;;8.05;;
7116;SDS011;3600;48.568;7.870;2022-10-31T13:50:28;9.95;;;7.18;;
7116;SDS011;3600;48.568;7.870;2022-10-31T13:55:46;12.43;;;7.13;;
7116;SDS011;3600;48.568;7.870;2022-10-31T13:58:27;12.63;;;7.78;;
7116;SDS011;3600;48.568;7.870;2022-10-31T14:03:38;13.85;;;7.43;;
7116;SDS011;3600;48.568;7.870;2022-10-31T14:09:24;12.10;;;7.47;;
7116;SDS011;3600;48.568;7.870;2022-10-31T14:12:01;14.27;;;6.88;;
7116;SDS011;3600;48.568;7.870;2022-10-31T14:14:47;10.63;;;6.45;;
7116;SDS011;3600;48.568;7.870;2022-10-31T14:17:17;8.82;;;6.28;;
7116;SDS011;3600;48.568;7.870;2022-10-31T14:19:58;9.13;;;6.80;;
7116;SDS011;3600;48.568;7.870;2022-10-31T14:22:47;8.98;;;6.38;;
7116;SDS011;3600;48.568;7.870;2022-10-31T14:25:33;8.68;;;6.22;;
7116;SDS011;3600;48.568;7.870;2022-10-31T14:28:31;8.38;;;6.07;;
7116;SDS011;3600;48.568;7.870;2022-10-31T14:30:59;8.38;;;5.82;;
7116;SDS011;3600;48.568;7.870;2022-10-31T14:33:27;7.43;;;5.38;;
7116;SDS011;3600;48.568;7.870;2022-10-31T14:39:13;8.25;;;5.22;;
7116;SDS011;3600;48.568;7.870;2022-10-31T14:44:50;8.00;;;5.50;;
7116;SDS011;3600;48.568;7.870;2022-10-31T14:52:47;11.55;;;7.72;;
7116;SDS011;3600;48.568;7.870;2022-10-31T14:55:16;8.32;;;7.22;;
7116;SDS011;3600;48.568;7.870;2022-10-31T14:57:52;11.07;;;7.45;;
7116;SDS011;3600;48.568;7.870;2022-10-31T15:00:23;9.75;;;6.85;;
7116;SDS011;3600;48.568;7.870;2022-10-31T15:03:03;9.57;;;7.15;;
7116;SDS011;3600;48.568;7.870;2022-10-31T15:05:42;7.68;;;6.65;;
7116;SDS011;3600;48.568;7.870;2022-10-31T15:08:31;15.50;;;7.70;;
7116;SDS011;3600;48.568;7.870;2022-10-31T15:11:17;10.93;;;7.35;;
7116;SDS011;3600;48.568;7.870;2022-10-31T15:13:53;10.38;;;9.27;;
7116;SDS011;3600;48.568;7.870;2022-10-31T15:16:32;10.65;;;7.70;;
7116;SDS011;3600;48.568;7.870;2022-10-31T15:19:05;9.05;;;7.72;;
7116;SDS011;3600;48.568;7.870;2022-10-31T15:21:35;10.40;;;7.90;;
7116;SDS011;3600;48.568;7.870;2022-10-31T15:24:12;15.00;;;12.27;;
7116;SDS011;3600;48.568;7.870;2022-10-31T15:26:48;16.55;;;13.63;;
7116;SDS011;3600;48.568;7.870;2022-10-31T15:29:18;9.35;;;8.18;;
7116;SDS011;3600;48.568;7.870;2022-10-31T15:31:49;11.35;;;8.18;;
7116;SDS011;3600;48.568;7.870;2022-10-31T15:37:22;15.18;;;9.43;;
7116;SDS011;3600;48.568;7.870;2022-10-31T15:39:51;9.45;;;8.38;;
7116;SDS011;3600;48.568;7.870;2022-10-31T15:42:26;11.25;;;8.40;;
7116;SDS011;3600;48.568;7.870;2022-10-31T15:47:27;19.60;;;16.15;;
7116;SDS011;3600;48.568;7.870;2022-10-31T15:49:57;14.75;;;10.45;;
7116;SDS011;3600;48.568;7.870;2022-10-31T15:52:36;17.00;;;9.27;;
7116;SDS011;3600;48.568;7.870;2022-10-31T15:55:20;17.20;;;13.55;;
7116;SDS011;3600;48.568;7.870;2022-10-31T15:57:58;13.90;;;10.60;;
7116;SDS011;3600;48.568;7.870;2022-10-31T16:00:31;13.95;;;12.18;;
7116;SDS011;3600;48.568;7.870;2022-10-31T16:05:46;17.80;;;11.27;;
7116;SDS011;3600;48.568;7.870;2022-10-31T16:13:34;15.15;;;11.35;;
7116;SDS011;3600;48.568;7.870;2022-10-31T16:16:04;16.33;;;12.25;;
7116;SDS011;3600;48.568;7.870;2022-10-31T16:18:59;15.57;;;11.10;;
7116;SDS011;3600;48.568;7.870;2022-10-31T16:21:33;12.43;;;10.77;;
7116;SDS011;3600;48.568;7.870;2022-10-31T16:24:03;14.63;;;9.95;;
7116;SDS011;3600;48.568;7.870;2022-10-31T16:26:47;14.43;;;10.95;;
7116;SDS011;3600;48.568;7.870;2022-10-31T16:29:25;13.85;;;11.75;;
7116;SDS011;3600;48.568;7.870;2022-10-31T16:31:55;23.52;;;14.27;;
7116;SDS011;3600;48.568;7.870;2022-10-31T16:34:22;20.23;;;15.75;;
7116;SDS011;3600;48.568;7.870;2022-10-31T16:36:52;18.48;;;14.13;;
7116;SDS011;3600;48.568;7.870;2022-10-31T16:39:19;15.32;;;12.45;;
7116;SDS011;3600;48.568;7.870;2022-10-31T16:41:46;18.60;;;13.10;;
7116;SDS011;3600;48.568;7.870;2022-10-31T16:44:23;17.50;;;12.85;;
7116;SDS011;3600;48.568;7.870;2022-10-31T16:47:01;18.42;;;12.48;;
7116;SDS011;3600;48.568;7.870;2022-10-31T16:49:41;16.27;;;13.10;;
7116;SDS011;3600;48.568;7.870;2022-10-31T16:52:09;21.25;;;13.20;;
7116;SDS011;3600;48.568;7.870;2022-10-31T16:54:36;20.77;;;14.20;;
7116;SDS011;3600;48.568;7.870;2022-10-31T16:57:03;16.95;;;12.93;;
7116;SDS011;3600;48.568;7.870;2022-10-31T16:59:32;16.30;;;12.88;;
7116;SDS011;3600;48.568;7.870;2022-10-31T17:01:59;16.40;;;14.32;;
7116;SDS011;3600;48.568;7.870;2022-10-31T17:04:29;17.20;;;13.65;;
7116;SDS011;3600;48.568;7.870;2022-10-31T17:06:56;16.17;;;11.98;;
7116;SDS011;3600;48.568;7.870;2022-10-31T17:09:23;15.52;;;10.63;;
7116;SDS011;3600;48.568;7.870;2022-10-31T17:11:49;13.07;;;11.35;;
7116;SDS011;3600;48.568;7.870;2022-10-31T17:14:18;14.10;;;10.77;;
7116;SDS011;3600;48.568;7.870;2022-10-31T17:16:45;15.55;;;11.30;;
7116;SDS011;3600;48.568;7.870;2022-10-31T17:19:12;11.15;;;10.02;;
7116;SDS011;3600;48.568;7.870;2022-10-31T17:21:39;12.13;;;10.60;;
7116;SDS011;3600;48.568;7.870;2022-10-31T17:24:08;12.73;;;10.20;;
7116;SDS011;3600;48.568;7.870;2022-10-31T17:26:40;14.20;;;9.68;;
7116;SDS011;3600;48.568;7.870;2022-10-31T17:29:07;14.93;;;10.50;;
7116;SDS011;3600;48.568;7.870;2022-10-31T17:31:34;12.80;;;11.15;;
7116;SDS011;3600;48.568;7.870;2022-10-31T17:34:01;14.88;;;10.07;;
7116;SDS011;3600;48.568;7.870;2022-10-31T17:36:30;15.40;;;10.70;;
7116;SDS011;3600;48.568;7.870;2022-10-31T17:38:58;15.93;;;11.27;;
7116;SDS011;3600;48.568;7.870;2022-10-31T17:41:26;13.48;;;10.82;;
7116;SDS011;3600;48.568;7.870;2022-10-31T17:43:56;16.10;;;11.15;;
7116;SDS011;3600;48.568;7.870;2022-10-31T17:46:24;17.02;;;13.27;;
7116;SDS011;3600;48.568;7.870;2022-10-31T17:48:51;20.40;;;18.15;;